createdAt,value
2023-01-13T00:00:31.000Z,0.65
2023-01-13T00:02:58.913Z,0.57
2023-01-13T00:05:26.883Z,0.13
2023-01-13T00:07:54.813Z,0.55
2023-01-13T00:10:24.170Z,0.40
2023-01-13T00:12:53.601Z,0.60
2023-01-13T00:15:21.532Z,0.50
2023-01-13T00:17:50.364Z,0.60
2023-01-13T00:20:18.933Z,0.65
2023-01-13T00:22:46.855Z,0.40
2023-01-13T00:25:14.748Z,0.52
2023-01-13T00:27:43.982Z,0.70
2023-01-13T00:30:12.806Z,0.50
2023-01-13T00:32:40.795Z,0.68
2023-01-13T00:35:09.452Z,0.60
2023-01-13T00:37:38.759Z,0.40
2023-01-13T00:40:07.826Z,0.55
2023-01-13T00:42:53.057Z,0.40
2023-01-13T00:45:22.235Z,0.50
2023-01-13T00:47:50.132Z,0.50
2023-01-13T00:50:18.152Z,0.50
2023-01-13T00:52:46.089Z,0.60
2023-01-13T00:55:13.956Z,0.35
2023-01-13T00:57:41.893Z,0.50
2023-01-13T01:00:11.055Z,0.30
2023-01-13T01:02:40.324Z,1.02
2023-01-13T01:05:08.992Z,0.40
2023-01-13T01:07:36.863Z,0.50
2023-01-13T01:10:05.553Z,0.80
2023-01-13T01:12:33.480Z,0.50
2023-01-13T01:15:01.388Z,0.47
2023-01-13T01:17:29.789Z,0.65
2023-01-13T01:19:58.993Z,0.40
2023-01-13T01:22:26.971Z,0.50
2023-01-13T01:24:54.831Z,0.50
2023-01-13T01:27:22.776Z,0.43
2023-01-13T01:29:50.682Z,0.20
2023-01-13T01:32:18.554Z,0.30
2023-01-13T01:34:46.441Z,0.35
2023-01-13T01:37:15.676Z,0.40
2023-01-13T01:39:43.556Z,0.15
2023-01-13T01:42:34.021Z,0.50
2023-01-13T01:45:04.316Z,0.40
2023-01-13T01:47:33.478Z,0.35
2023-01-13T01:50:04.180Z,0.47
2023-01-13T01:52:38.343Z,0.40
2023-01-13T01:55:11.210Z,0.40
2023-01-13T01:57:44.862Z,0.50
2023-01-13T02:00:14.173Z,0.40
2023-01-13T02:02:44.350Z,0.25
2023-01-13T02:05:12.807Z,0.40
2023-01-13T02:07:44.386Z,0.40
2023-01-13T02:10:15.256Z,0.22
2023-01-13T02:12:46.057Z,0.60
2023-01-13T02:15:17.207Z,0.35
2023-01-13T02:17:56.178Z,0.40
2023-01-13T02:20:39.657Z,0.47
2023-01-13T02:24:10.596Z,0.40
2023-01-13T02:27:11.962Z,0.43
2023-01-13T02:30:16.513Z,0.20
2023-01-13T02:32:54.242Z,0.25
2023-01-13T02:35:27.357Z,0.32
2023-01-13T02:37:57.804Z,0.20
2023-01-13T02:40:30.156Z,0.20
2023-01-13T02:45:51.463Z,0.40
2023-01-13T02:48:23.886Z,0.40
2023-01-13T02:50:58.540Z,0.38
2023-01-13T02:53:34.439Z,0.32
2023-01-13T02:56:04.753Z,0.10
2023-01-13T02:58:35.207Z,0.32
2023-01-13T03:01:04.728Z,0.35
2023-01-13T03:03:32.784Z,0.30
2023-01-13T03:06:19.485Z,0.40
2023-01-13T03:08:51.887Z,0.30
2023-01-13T03:14:07.955Z,0.22
2023-01-13T03:17:05.592Z,0.43
2023-01-13T03:19:42.615Z,0.20
2023-01-13T03:22:22.025Z,0.20
2023-01-13T03:24:54.284Z,0.30
2023-01-13T03:29:57.751Z,0.40
2023-01-13T03:32:29.701Z,0.20
2023-01-13T03:35:04.867Z,0.30
2023-01-13T03:37:35.906Z,0.30
2023-01-13T03:40:11.192Z,0.28
2023-01-13T03:43:02.111Z,0.30
2023-01-13T03:45:33.498Z,0.30
2023-01-13T03:48:08.052Z,0.40
2023-01-13T03:50:40.665Z,0.22
2023-01-13T03:53:12.540Z,0.50
2023-01-13T03:55:45.657Z,0.50
2023-01-13T03:58:18.586Z,0.50
2023-01-13T04:00:51.692Z,0.30
2023-01-13T04:03:24.214Z,0.40
2023-01-13T04:05:55.962Z,0.35
2023-01-13T04:08:27.189Z,0.30
2023-01-13T04:11:01.226Z,0.50
2023-01-13T04:13:32.559Z,0.30
2023-01-13T04:16:01.386Z,0.47
2023-01-13T04:18:32.108Z,0.30
2023-01-13T04:21:02.023Z,0.10
2023-01-13T04:23:30.400Z,0.30
2023-01-13T04:25:58.300Z,0.30
2023-01-13T04:28:26.861Z,0.17
2023-01-13T04:30:54.640Z,0.50
2023-01-13T04:33:22.521Z,0.30
2023-01-13T04:35:52.537Z,0.55
2023-01-13T04:38:21.751Z,0.20
2023-01-13T04:40:49.590Z,0.30
2023-01-13T04:43:17.834Z,0.20
2023-01-13T04:45:45.737Z,0.30
2023-01-13T04:48:13.865Z,0.22
2023-01-13T04:50:41.706Z,0.30
2023-01-13T04:53:10.797Z,0.30
2023-01-13T04:55:38.585Z,0.20
2023-01-13T04:58:08.076Z,0.40
2023-01-13T05:00:36.392Z,0.32
2023-01-13T05:03:05.013Z,0.40
2023-01-13T05:05:33.219Z,0.30
2023-01-13T05:08:01.555Z,0.32
2023-01-13T05:10:30.687Z,0.20
2023-01-13T05:13:16.127Z,0.30
2023-01-13T05:16:01.984Z,0.25
2023-01-13T05:18:31.603Z,0.40
2023-01-13T05:20:59.358Z,0.30
2023-01-13T05:23:44.866Z,0.43
2023-01-13T05:26:14.022Z,0.30
2023-01-13T05:28:41.795Z,0.30
2023-01-13T05:31:09.609Z,0.25
2023-01-13T05:33:37.389Z,0.50
2023-01-13T05:36:05.825Z,0.30
2023-01-13T05:38:33.570Z,0.30
2023-01-13T05:41:19.040Z,0.50
2023-01-13T05:43:48.821Z,0.30
2023-01-13T05:46:17.636Z,0.20
2023-01-13T05:48:45.892Z,0.25
2023-01-13T05:51:14.083Z,0.40
2023-01-13T05:53:41.999Z,0.30
2023-01-13T05:56:10.853Z,0.47
2023-01-13T05:58:38.674Z,0.43
2023-01-13T06:01:09.874Z,0.30
2023-01-13T06:03:38.739Z,0.52
2023-01-13T06:06:08.873Z,0.50
2023-01-13T06:08:39.459Z,0.32
2023-01-13T06:11:07.531Z,0.22
2023-01-13T06:13:35.325Z,0.50
2023-01-13T06:16:03.133Z,0.30
2023-01-13T06:18:32.247Z,0.30
2023-01-13T06:21:00.006Z,0.40
2023-01-13T06:23:28.302Z,0.30
2023-01-13T06:26:03.079Z,0.45
2023-01-13T06:28:30.847Z,0.40
2023-01-13T06:31:01.894Z,0.52
2023-01-13T06:33:34.458Z,0.50
2023-01-13T06:36:06.797Z,1.17
2023-01-13T06:41:04.350Z,0.20
2023-01-13T06:43:31.172Z,0.30
2023-01-13T06:45:58.908Z,0.40
2023-01-13T06:48:32.855Z,0.40
2023-01-13T06:51:02.130Z,0.38
2023-01-13T06:53:29.893Z,0.40
2023-01-13T06:55:57.657Z,0.20
2023-01-13T06:58:25.468Z,0.50
2023-01-13T07:00:53.621Z,0.30
2023-01-13T07:03:21.561Z,0.35
2023-01-13T07:05:53.524Z,0.40
2023-01-13T07:08:22.667Z,0.40
2023-01-13T07:10:51.152Z,0.40
2023-01-13T07:13:36.594Z,0.40
2023-01-13T07:16:07.198Z,0.22
2023-01-13T07:18:35.903Z,0.50
2023-01-13T07:21:05.896Z,0.50
2023-01-13T07:23:37.805Z,0.40
2023-01-13T07:26:05.958Z,0.40
2023-01-13T07:28:34.081Z,0.40
2023-01-13T07:31:02.190Z,0.30
2023-01-13T07:33:32.858Z,0.38
2023-01-13T07:36:02.698Z,0.40
2023-01-13T07:38:31.387Z,0.30
2023-01-13T07:41:22.792Z,0.50
2023-01-13T07:43:50.197Z,0.25
2023-01-13T07:46:18.741Z,0.45
2023-01-13T07:48:48.853Z,0.35
2023-01-13T07:51:16.741Z,0.25
2023-01-13T07:53:44.490Z,0.32
2023-01-13T07:56:13.677Z,0.43
2023-01-13T07:58:41.479Z,0.45
2023-01-13T08:01:10.416Z,0.47
2023-01-13T08:03:38.305Z,0.55
2023-01-13T08:06:06.389Z,0.30
2023-01-13T08:08:34.677Z,0.38
2023-01-13T08:11:03.838Z,0.50
2023-01-13T08:13:33.197Z,0.40
2023-01-13T08:16:02.643Z,0.40
2023-01-13T08:18:32.321Z,0.30
2023-01-13T08:21:03.544Z,0.32
2023-01-13T08:23:31.404Z,0.55
2023-01-13T08:26:01.897Z,0.30
2023-01-13T08:28:29.800Z,0.35
2023-01-13T08:31:01.514Z,0.20
2023-01-13T08:33:30.118Z,0.40
2023-01-13T08:35:58.032Z,0.30
2023-01-13T08:38:26.443Z,0.57
2023-01-13T08:40:54.556Z,0.38
2023-01-13T08:43:22.344Z,0.60
2023-01-13T08:45:58.324Z,0.40
2023-01-13T08:48:29.761Z,0.50
2023-01-13T08:51:03.890Z,0.40
2023-01-13T08:53:31.712Z,0.30
2023-01-13T08:55:59.534Z,0.40
2023-01-13T08:58:27.341Z,0.40
2023-01-13T09:00:55.186Z,0.38
2023-01-13T09:03:22.982Z,0.30
2023-01-13T09:05:52.117Z,0.30
2023-01-13T09:08:20.227Z,0.40
2023-01-13T09:10:48.027Z,0.32
2023-01-13T09:13:15.427Z,0.50
2023-01-13T09:15:45.404Z,0.30
2023-01-13T09:18:14.277Z,0.50
2023-01-13T09:20:42.288Z,0.65
2023-01-13T09:23:11.710Z,0.40
2023-01-13T09:25:39.949Z,0.40
2023-01-13T09:28:08.327Z,0.60
2023-01-13T09:30:37.912Z,0.30
2023-01-13T09:33:23.236Z,0.50
2023-01-13T09:35:50.995Z,0.38
2023-01-13T09:38:20.153Z,0.13
2023-01-13T09:40:49.848Z,0.28
2023-01-13T09:43:39.501Z,0.40
2023-01-13T09:46:34.037Z,0.55
2023-01-13T09:49:03.626Z,0.43
2023-01-13T09:51:37.003Z,0.63
2023-01-13T09:54:15.712Z,0.40
2023-01-13T09:56:43.856Z,0.38
2023-01-13T09:59:13.085Z,0.30
2023-01-13T10:01:51.658Z,0.22
2023-01-13T10:04:19.556Z,0.30
2023-01-13T10:06:50.716Z,0.43
2023-01-13T10:09:24.214Z,0.32
2023-01-13T10:12:11.237Z,0.40
2023-01-13T10:14:42.806Z,0.20
2023-01-13T10:17:19.874Z,0.30
2023-01-13T10:19:51.501Z,0.25
2023-01-13T10:22:39.953Z,0.30
2023-01-13T10:25:23.149Z,0.38
2023-01-13T10:27:53.682Z,0.43
2023-01-13T10:30:27.584Z,0.30
2023-01-13T10:32:58.601Z,0.40
2023-01-13T10:35:52.740Z,0.13
2023-01-13T10:38:22.731Z,0.40
2023-01-13T10:40:54.411Z,0.20
2023-01-13T10:43:22.526Z,0.20
2023-01-13T10:45:59.061Z,0.35
2023-01-13T10:48:35.501Z,0.20
2023-01-13T10:51:20.651Z,0.52
2023-01-13T10:53:53.821Z,0.20
2023-01-13T10:56:24.628Z,0.30
2023-01-13T10:58:52.510Z,0.40
2023-01-13T11:01:27.108Z,0.20
2023-01-13T11:03:56.146Z,0.30
2023-01-13T11:06:25.946Z,0.20
2023-01-13T11:08:58.108Z,0.40
2023-01-13T11:11:37.896Z,0.20
2023-01-13T11:14:30.535Z,0.20
2023-01-13T11:19:31.760Z,0.20
2023-01-13T11:22:05.641Z,0.22
2023-01-13T11:24:38.617Z,0.30
2023-01-13T11:27:13.536Z,0.20
2023-01-13T11:29:55.242Z,0.35
2023-01-13T11:32:25.405Z,0.30
2023-01-13T11:34:56.754Z,0.10
2023-01-13T11:37:27.406Z,0.30
2023-01-13T11:40:01.488Z,0.28
2023-01-13T11:42:37.948Z,0.20
2023-01-13T11:45:16.725Z,0.30
2023-01-13T11:47:47.590Z,0.20
2023-01-13T11:50:18.599Z,0.20
2023-01-13T11:53:08.598Z,0.22
2023-01-13T11:55:46.734Z,0.25
2023-01-13T11:58:50.350Z,0.40
2023-01-13T12:01:35.665Z,0.45
2023-01-13T12:04:21.920Z,0.43
2023-01-13T12:06:54.761Z,0.20
2023-01-13T12:09:34.247Z,0.30
2023-01-13T12:12:22.727Z,0.40
2023-01-13T12:15:08.914Z,0.30
2023-01-13T12:17:47.338Z,0.60
2023-01-13T12:20:30.885Z,0.43
2023-01-13T12:23:03.732Z,0.35
2023-01-13T12:25:37.050Z,0.40
2023-01-13T12:28:13.158Z,0.30
2023-01-13T12:30:50.607Z,0.60
2023-01-13T12:33:26.303Z,0.35
2023-01-13T12:36:03.476Z,0.40
2023-01-13T12:38:37.322Z,0.30
2023-01-13T12:41:15.612Z,0.43
2023-01-13T12:44:04.987Z,0.60
2023-01-13T12:46:52.997Z,0.52
2023-01-13T12:49:24.142Z,0.73
2023-01-13T12:52:10.656Z,0.40
2023-01-13T12:55:04.958Z,0.50
2023-01-13T12:57:34.981Z,0.45
2023-01-13T13:00:17.404Z,0.28
2023-01-13T13:03:20.725Z,0.50
2023-01-13T13:05:56.445Z,0.40
2023-01-13T13:08:30.566Z,0.40
2023-01-13T13:11:58.160Z,0.50
2023-01-13T13:15:03.204Z,0.65
2023-01-13T13:17:42.155Z,0.40
2023-01-13T13:20:53.944Z,0.63
2023-01-13T13:23:30.919Z,0.55
2023-01-13T13:26:06.709Z,0.43
2023-01-13T13:28:38.287Z,0.60
2023-01-13T13:31:22.193Z,0.70
2023-01-13T13:34:02.682Z,0.68
2023-01-13T13:36:58.240Z,0.50
2023-01-13T13:39:45.819Z,0.73
2023-01-13T13:42:34.043Z,0.47
2023-01-13T13:45:20.940Z,0.60
2023-01-13T13:47:48.886Z,0.50
2023-01-13T13:50:19.651Z,0.43
2023-01-13T13:52:54.866Z,0.32
2023-01-13T13:55:25.322Z,0.47
2023-01-13T13:57:55.218Z,0.50
2023-01-13T14:00:28.346Z,0.50
2023-01-13T14:03:00.686Z,0.30
2023-01-13T14:08:02.865Z,0.30
2023-01-13T14:10:32.725Z,0.20
2023-01-13T14:13:02.537Z,0.30
2023-01-13T14:15:34.025Z,0.20
2023-01-13T14:18:04.094Z,0.40
2023-01-13T14:20:34.393Z,0.90
2023-01-13T14:23:05.862Z,0.45
2023-01-13T14:25:39.410Z,0.35
2023-01-13T14:28:19.597Z,0.50
2023-01-13T14:30:47.912Z,0.25
2023-01-13T14:33:18.195Z,0.30
2023-01-13T14:36:05.836Z,0.40
2023-01-13T14:38:35.106Z,0.20
2023-01-13T14:41:19.142Z,0.38
2023-01-13T14:43:48.208Z,0.82
2023-01-13T14:46:17.591Z,0.60
2023-01-13T14:48:48.025Z,0.60
2023-01-13T14:51:24.628Z,0.70
2023-01-13T14:53:54.383Z,0.90
2023-01-13T14:56:42.448Z,1.40
2023-01-13T14:59:36.638Z,2.33
2023-01-13T15:02:36.746Z,2.70
2023-01-13T15:05:37.983Z,0.40
2023-01-13T15:08:26.801Z,0.77
2023-01-13T15:10:59.779Z,0.90
2023-01-13T15:13:41.409Z,0.50
2023-01-13T15:16:18.819Z,0.40
2023-01-13T15:18:47.081Z,0.50
2023-01-13T15:21:16.112Z,0.40
2023-01-13T15:23:44.761Z,0.63
2023-01-13T15:26:22.924Z,0.63
2023-01-13T15:28:51.927Z,0.75
2023-01-13T15:31:19.944Z,0.68
2023-01-13T15:33:47.779Z,0.52
2023-01-13T15:36:22.768Z,0.60
2023-01-13T15:38:50.729Z,0.52
2023-01-13T15:41:40.705Z,0.70
2023-01-13T15:44:28.114Z,0.73
2023-01-13T15:46:57.346Z,0.50
2023-01-13T15:49:34.613Z,0.80
2023-01-13T15:52:03.673Z,0.70
2023-01-13T15:54:31.560Z,0.90
2023-01-13T15:57:00.702Z,0.60
2023-01-13T15:59:28.814Z,0.90
2023-01-13T16:01:56.575Z,0.77
2023-01-13T16:04:24.329Z,0.73
2023-01-13T16:06:52.097Z,0.63
2023-01-13T16:09:19.872Z,0.73
2023-01-13T16:11:47.663Z,0.95
2023-01-13T16:14:16.746Z,0.70
2023-01-13T16:16:44.579Z,0.70
2023-01-13T16:19:13.544Z,1.17
2023-01-13T16:21:41.436Z,1.10
2023-01-13T16:24:09.223Z,2.08
2023-01-13T16:26:38.851Z,2.40
2023-01-13T16:29:07.288Z,3.28
2023-01-13T16:31:36.881Z,2.83
2023-01-13T16:34:05.913Z,2.17
2023-01-13T16:36:36.673Z,2.33
2023-01-13T16:39:05.905Z,2.10
2023-01-13T16:41:34.952Z,2.20
2023-01-13T16:44:05.977Z,1.65
2023-01-13T16:46:34.835Z,1.60
2023-01-13T16:49:06.352Z,1.83
2023-01-13T16:51:34.345Z,2.60
2023-01-13T16:54:02.204Z,2.67
2023-01-13T16:56:31.501Z,1.90
2023-01-13T16:59:01.277Z,1.95
2023-01-13T17:01:30.825Z,2.92
2023-01-13T17:03:59.214Z,2.70
2023-01-13T17:06:36.458Z,3.50
2023-01-13T17:09:05.783Z,3.53
2023-01-13T17:11:33.676Z,3.63
2023-01-13T17:14:17.166Z,3.63
2023-01-13T17:16:46.729Z,2.13
2023-01-13T17:19:14.766Z,1.90
2023-01-13T17:21:44.061Z,1.55
2023-01-13T17:24:12.376Z,1.60
2023-01-13T17:26:43.870Z,1.33
2023-01-13T17:29:14.347Z,1.57
2023-01-13T17:31:42.458Z,1.88
2023-01-13T17:34:12.349Z,2.17
2023-01-13T17:36:40.203Z,2.60
2023-01-13T17:39:10.578Z,2.00
2023-01-13T17:41:38.331Z,2.22
2023-01-13T17:44:06.121Z,2.40
2023-01-13T17:46:33.907Z,2.10
2023-01-13T17:49:01.674Z,2.17
2023-01-13T17:51:30.151Z,1.75
2023-01-13T17:53:57.934Z,1.60
2023-01-13T17:56:27.055Z,1.80
2023-01-13T17:58:54.818Z,1.77
2023-01-13T18:01:23.478Z,1.52
2023-01-13T18:03:51.697Z,1.20
2023-01-13T18:06:21.553Z,1.60
2023-01-13T18:08:49.870Z,1.30
2023-01-13T18:11:19.639Z,1.20
2023-01-13T18:13:50.307Z,1.50
2023-01-13T18:16:19.897Z,2.10
2023-01-13T18:18:50.637Z,2.25
2023-01-13T18:21:38.363Z,1.50
2023-01-13T18:24:24.787Z,1.58
2023-01-13T18:27:10.208Z,1.65
2023-01-13T18:29:39.343Z,1.65
2023-01-13T18:32:08.867Z,2.22
2023-01-13T18:34:36.704Z,2.10
2023-01-13T18:37:05.073Z,1.73
2023-01-13T18:39:32.930Z,1.50
2023-01-13T18:42:18.445Z,2.03
2023-01-13T18:44:47.558Z,2.33
2023-01-13T18:47:15.376Z,2.00
2023-01-13T18:49:43.173Z,1.85
2023-01-13T18:52:11.122Z,1.50
2023-01-13T18:54:38.895Z,1.70
2023-01-13T18:57:06.727Z,1.50
2023-01-13T18:59:34.778Z,1.15
2023-01-13T19:02:09.107Z,1.38
2023-01-13T19:04:37.050Z,1.00
2023-01-13T19:07:05.057Z,1.20
2023-01-13T19:09:32.844Z,1.13
2023-01-13T19:12:01.459Z,1.00
2023-01-13T19:14:37.211Z,1.15
2023-01-13T19:17:09.640Z,1.30
2023-01-13T19:19:40.716Z,1.42
2023-01-13T19:22:08.910Z,0.80
2023-01-13T19:24:36.711Z,1.05
2023-01-13T19:27:05.439Z,0.85
2023-01-13T19:29:33.949Z,0.85
2023-01-13T19:32:02.025Z,0.80
2023-01-13T19:34:31.412Z,0.82
2023-01-13T19:36:59.329Z,1.20
2023-01-13T19:39:27.391Z,0.95
2023-01-13T19:42:12.967Z,1.23
2023-01-13T19:44:58.468Z,1.05
2023-01-13T19:47:26.231Z,1.00
2023-01-13T19:49:55.430Z,0.93
2023-01-13T19:52:23.312Z,0.80
2023-01-13T19:54:51.787Z,0.88
2023-01-13T19:57:20.253Z,0.80
2023-01-13T19:59:47.994Z,1.05
2023-01-13T20:02:27.224Z,0.80
2023-01-13T20:04:57.469Z,0.80
2023-01-13T20:07:26.092Z,0.70
2023-01-13T20:09:56.138Z,1.00
2023-01-13T20:12:25.293Z,1.00
2023-01-13T20:14:53.385Z,0.90
2023-01-13T20:17:22.701Z,0.85
2023-01-13T20:19:50.500Z,0.82
2023-01-13T20:22:19.651Z,0.52
2023-01-13T20:24:48.427Z,0.63
2023-01-13T20:27:16.168Z,0.50
2023-01-13T20:29:43.931Z,0.70
2023-01-13T20:32:11.695Z,0.90
2023-01-13T20:34:39.431Z,0.63
2023-01-13T20:37:07.199Z,0.80
2023-01-13T20:39:37.454Z,0.60
2023-01-13T20:42:22.957Z,0.60
2023-01-13T20:44:50.709Z,0.60
2023-01-13T20:47:18.634Z,0.60
2023-01-13T20:49:46.665Z,0.30
2023-01-13T20:52:14.575Z,0.45
2023-01-13T20:54:43.706Z,0.50
2023-01-13T20:57:11.906Z,0.40
2023-01-13T20:59:40.668Z,0.30
2023-01-13T21:02:13.556Z,0.40
2023-01-13T21:04:41.627Z,0.35
2023-01-13T21:07:09.940Z,0.40
2023-01-13T21:09:37.815Z,0.40
2023-01-13T21:12:25.723Z,0.30
2023-01-13T21:15:11.306Z,0.57
2023-01-13T21:17:56.746Z,0.47
2023-01-13T21:20:24.551Z,0.45
2023-01-13T21:22:52.462Z,0.47
2023-01-13T21:25:20.789Z,1.05
2023-01-13T21:27:49.916Z,0.52
2023-01-13T21:30:18.904Z,0.90
2023-01-13T21:32:47.382Z,0.55
2023-01-13T21:35:15.760Z,0.50
2023-01-13T21:37:44.652Z,0.40
2023-01-13T21:40:15.061Z,0.73
2023-01-13T21:43:00.613Z,0.60
2023-01-13T21:45:47.188Z,0.65
2023-01-13T21:48:14.981Z,0.52
2023-01-13T21:50:43.029Z,0.47
2023-01-13T21:53:11.053Z,0.70
2023-01-13T21:55:38.844Z,0.47
2023-01-13T21:58:12.452Z,0.60
2023-01-13T22:00:43.026Z,0.70
2023-01-13T22:03:12.380Z,0.63
2023-01-13T22:05:40.237Z,0.93
2023-01-13T22:08:08.424Z,1.08
2023-01-13T22:10:36.591Z,0.52
2023-01-13T22:13:19.168Z,0.57
2023-01-13T22:15:48.432Z,0.60
2023-01-13T22:18:17.959Z,0.70
2023-01-13T22:20:45.982Z,0.95
2023-01-13T22:23:14.057Z,0.60
2023-01-13T22:25:41.816Z,0.70
2023-01-13T22:28:13.598Z,0.90
2023-01-13T22:30:41.434Z,1.08
2023-01-13T22:33:10.565Z,0.65
2023-01-13T22:35:38.617Z,0.75
2023-01-13T22:38:06.353Z,0.60
2023-01-13T22:40:34.083Z,0.70
2023-01-13T22:43:01.819Z,0.52
2023-01-13T22:45:29.645Z,0.40
2023-01-13T22:47:57.491Z,0.90
2023-01-13T22:50:26.645Z,0.52
2023-01-13T22:52:54.376Z,0.73
2023-01-13T22:55:22.111Z,0.60
2023-01-13T22:57:49.874Z,0.47
2023-01-13T23:00:19.578Z,0.40
2023-01-13T23:02:47.512Z,0.40
2023-01-13T23:05:15.375Z,0.32
2023-01-13T23:07:44.467Z,0.55
2023-01-13T23:10:12.720Z,0.40
2023-01-13T23:12:40.547Z,0.55
2023-01-13T23:15:09.069Z,0.60
2023-01-13T23:17:36.920Z,0.50
2023-01-13T23:20:05.048Z,0.60
2023-01-13T23:22:35.112Z,0.70
2023-01-13T23:25:04.359Z,0.80
2023-01-13T23:27:32.110Z,0.52
2023-01-13T23:29:59.873Z,0.70
2023-01-13T23:32:27.681Z,0.40
2023-01-13T23:34:55.423Z,0.80
2023-01-13T23:37:23.194Z,0.80
2023-01-13T23:39:50.945Z,0.80
2023-01-13T23:42:20.069Z,0.73
2023-01-13T23:44:47.809Z,0.47
2023-01-13T23:47:15.578Z,0.73
2023-01-13T23:49:43.344Z,0.82
2023-01-13T23:52:11.114Z,0.60
2023-01-13T23:54:38.977Z,0.70
2023-01-13T23:57:06.919Z,0.63
2023-01-13T23:59:36.003Z,1.00
